Time;durP1;ratioP1;P1;durP2;ratioP2;P2;SDS_P1;SDS_P2;PMS_P1;PMS_P2;Temp;Humidity;BMP_temperature;BMP_pressure;BME280_temperature;BME280_humidity;BME280_pressure;Samples;Min_cycle;Max_cycle;Signal;HPM_P1;HPM_P2
2021/05/15 00:00:06;;;;;;;8.88;5.00;;;10.10;99.90;;;;;;10426152;28;20063;-61
2021/05/15 00:05:09;;;;;;;7.32;5.50;;;10.10;99.90;;;;;;10421626;28;20127;-59
2021/05/15 00:10:11;;;;;;;8.30;5.13;;;10.10;99.90;;;;;;10429340;28;20144;-61
2021/05/15 00:15:14;;;;;;;13.43;6.65;;;10.10;99.90;;;;;;10427287;28;20045;-61
2021/05/15 00:20:16;;;;;;;8.27;5.45;;;10.10;99.90;;;;;;10432432;28;20044;-62
2021/05/15 00:25:18;;;;;;;13.70;5.65;;;10.10;99.90;;;;;;10438854;28;20077;-61
2021/05/15 00:30:20;;;;;;;10.98;6.03;;;10.10;99.90;;;;;;10436553;28;20048;-60
2021/05/15 00:35:22;;;;;;;11.75;6.90;;;10.10;99.90;;;;;;10417420;28;20049;-61
2021/05/15 00:40:24;;;;;;;8.33;5.80;;;10.10;99.90;;;;;;10419304;28;20053;-60
2021/05/15 00:45:25;;;;;;;15.00;6.82;;;11.90;99.90;;;;;;10425569;28;20128;-62
2021/05/15 00:50:28;;;;;;;9.55;5.70;;;10.00;99.90;;;;;;10425057;28;20053;-61
2021/05/15 00:55:30;;;;;;;8.40;5.63;;;10.00;99.90;;;;;;10427079;28;20061;-61
2021/05/15 01:00:32;;;;;;;11.40;6.18;;;10.00;99.90;;;;;;10428661;28;20061;-61
2021/05/15 01:05:34;;;;;;;16.60;7.10;;;10.00;99.90;;;;;;10429844;28;20415;-60
2021/05/15 01:10:35;;;;;;;12.37;6.43;;;10.00;99.90;;;;;;10422039;28;20065;-61
2021/05/15 01:15:37;;;;;;;12.75;6.32;;;10.00;99.90;;;;;;10423411;28;20507;-60
2021/05/15 01:20:39;;;;;;;9.52;6.30;;;10.70;99.90;;;;;;10435308;28;20516;-61
2021/05/15 01:25:41;;;;;;;11.50;5.68;;;9.90;99.90;;;;;;10427510;28;20045;-61
2021/05/15 01:30:43;;;;;;;9.98;6.22;;;9.90;99.90;;;;;;10425755;28;20049;-62
2021/05/15 01:35:44;;;;;;;9.32;6.00;;;9.80;99.90;;;;;;10411667;28;20099;-60
2021/05/15 01:40:46;;;;;;;8.80;5.70;;;9.70;99.90;;;;;;10422625;28;20058;-61
2021/05/15 01:45:47;;;;;;;12.98;5.85;;;9.70;99.90;;;;;;10423745;28;20057;-63
2021/05/15 01:50:59;;;;;;;14.57;6.50;;;9.60;99.90;;;;;;10423400;28;20057;-60
2021/05/15 01:56:03;;;;;;;16.00;6.32;;;9.50;99.90;;;;;;10420663;28;20061;-60
2021/05/15 02:01:05;;;;;;;14.55;6.70;;;9.40;99.90;;;;;;10427328;28;20155;-60
2021/05/15 02:06:07;;;;;;;13.93;6.45;;;9.40;99.90;;;;;;10412323;28;20448;-61
2021/05/15 02:11:09;;;;;;;12.02;7.20;;;9.30;99.90;;;;;;10412262;28;20056;-60
2021/05/15 02:16:11;;;;;;;18.50;7.03;;;9.10;99.90;;;;;;10422795;28;20637;-61
2021/05/15 02:21:12;;;;;;;16.63;7.32;;;9.10;99.90;;;;;;10420886;28;20484;-61
2021/05/15 02:26:14;;;;;;;8.50;5.90;;;9.20;99.90;;;;;;10427708;28;20065;-61
2021/05/15 02:31:16;;;;;;;18.00;6.63;;;9.40;99.90;;;;;;10425429;28;20125;-60
2021/05/15 02:36:17;;;;;;;13.70;6.78;;;9.50;99.90;;;;;;10426522;28;20051;-61
2021/05/15 02:41:20;;;;;;;14.00;7.03;;;9.50;99.90;;;;;;10431864;28;20511;-60
2021/05/15 02:46:21;;;;;;;10.60;6.25;;;9.50;99.90;;;;;;10424162;28;20115;-60
2021/05/15 02:51:23;;;;;;;12.55;6.85;;;9.50;99.90;;;;;;10439482;28;20553;-59
2021/05/15 02:56:25;;;;;;;10.82;6.88;;;9.50;99.90;;;;;;10432721;28;20104;-60
2021/05/15 03:01:26;;;;;;;16.45;6.70;;;9.60;99.90;;;;;;10433122;28;20063;-60
2021/05/15 03:06:28;;;;;;;10.90;4.95;;;9.60;99.90;;;;;;10434909;28;20393;-60
2021/05/15 03:11:30;;;;;;;12.27;6.50;;;9.70;99.90;;;;;;10440202;28;20045;-60
2021/05/15 03:16:32;;;;;;;9.85;6.30;;;9.70;99.90;;;;;;10437847;28;20573;-60
2021/05/15 03:21:33;;;;;;;6.90;5.22;;;9.70;99.90;;;;;;10431715;28;20080;-59
2021/05/15 03:26:35;;;;;;;14.85;6.60;;;9.70;99.90;;;;;;10437686;28;20050;-59
2021/05/15 03:31:36;;;;;;;10.87;5.07;;;9.80;99.90;;;;;;10443731;28;20055;-60
2021/05/15 03:36:37;;;;;;;13.15;7.72;;;9.70;99.90;;;;;;10428810;28;20168;-59
2021/05/15 03:41:40;;;;;;;17.92;6.47;;;9.70;99.90;;;;;;10435707;28;20125;-60
2021/05/15 03:46:41;;;;;;;15.15;7.63;;;9.70;99.90;;;;;;10433019;28;20145;-60
2021/05/15 03:51:43;;;;;;;12.32;6.47;;;9.80;99.90;;;;;;10427490;28;20135;-60
2021/05/15 03:56:45;;;;;;;15.85;6.35;;;9.80;99.90;;;;;;10439168;28;20052;-60
2021/05/15 04:01:47;;;;;;;18.17;7.37;;;9.90;99.90;;;;;;10435641;28;20493;-61
2021/05/15 04:06:48;;;;;;;12.20;6.43;;;9.90;99.90;;;;;;10438461;28;20103;-60
2021/05/15 04:11:50;;;;;;;8.48;6.70;;;9.90;99.90;;;;;;10430601;28;20051;-61
2021/05/15 04:17:03;;;;;;;12.52;6.82;;;9.90;99.90;;;;;;10435470;28;20072;-61
2021/05/15 04:22:04;;;;;;;13.57;9.10;;;9.90;99.90;;;;;;10422181;28;20156;-59
2021/05/15 04:27:07;;;;;;;14.80;8.40;;;9.90;99.90;;;;;;10435331;28;20067;-60
2021/05/15 04:32:09;;;;;;;17.92;6.88;;;10.00;99.90;;;;;;10426309;28;20062;-60
2021/05/15 04:37:10;;;;;;;13.20;7.43;;;10.00;99.90;;;;;;10444295;28;20128;-60
2021/05/15 04:42:12;;;;;;;12.00;6.82;;;10.00;99.90;;;;;;10426859;28;20053;-60
2021/05/15 04:47:13;;;;;;;16.57;6.87;;;10.00;99.90;;;;;;10430649;28;20073;-61
2021/05/15 04:52:15;;;;;;;17.92;8.10;;;10.10;99.90;;;;;;10433777;28;20140;-61
2021/05/15 04:57:17;;;;;;;13.65;10.57;;;10.10;99.90;;;;;;10425669;28;20054;-61
2021/05/15 05:02:18;;;;;;;23.30;10.50;;;10.10;99.90;;;;;;10431834;28;20492;-61
2021/05/15 05:07:19;;;;;;;17.85;10.45;;;10.20;99.90;;;;;;10429716;28;20041;-61
2021/05/15 05:12:21;;;;;;;15.98;8.65;;;10.30;99.90;;;;;;10426268;28;20045;-61
2021/05/15 05:17:22;;;;;;;13.10;6.73;;;10.40;99.90;;;;;;10425792;28;20045;-62
2021/05/15 05:22:24;;;;;;;12.75;7.90;;;10.50;99.90;;;;;;10426844;28;20084;-61
2021/05/15 05:27:26;;;;;;;16.52;8.50;;;10.60;99.90;;;;;;10423870;28;20086;-64
2021/05/15 05:32:27;;;;;;;16.97;7.67;;;10.80;99.90;;;;;;10435841;28;20477;-63
2021/05/15 05:37:29;;;;;;;18.00;7.90;;;10.90;99.60;;;;;;10413305;28;20819;-59
2021/05/15 05:42:31;;;;;;;15.23;7.65;;;11.20;99.20;;;;;;10352925;28;21738;-61
2021/05/15 05:47:32;;;;;;;18.70;7.73;;;11.50;98.50;;;;;;10354169;28;20057;-60
2021/05/15 05:52:34;;;;;;;17.92;7.68;;;11.70;97.90;;;;;;10360751;28;22859;-62
2021/05/15 05:57:36;;;;;;;17.35;7.95;;;12.10;97.20;;;;;;10361825;28;21324;-61
2021/05/15 06:02:38;;;;;;;30.00;11.97;;;12.50;96.40;;;;;;10355530;28;20072;-61
2021/05/15 06:07:39;;;;;;;11.13;6.20;;;12.60;95.30;;;;;;10357573;28;20064;-59
2021/05/15 06:12:42;;;;;;;11.15;6.38;;;12.50;94.40;;;;;;10358459;28;21153;-59
2021/05/15 06:17:43;;;;;;;8.80;4.90;;;12.40;94.20;;;;;;10360510;28;20177;-60
2021/05/15 06:22:44;;;;;;;7.00;4.20;;;12.40;93.80;;;;;;10359524;28;20722;-62
2021/05/15 06:27:46;;;;;;;9.32;5.90;;;12.60;93.20;;;;;;10359629;28;20088;-59
2021/05/15 06:32:48;;;;;;;10.57;6.30;;;13.00;92.20;;;;;;10360211;28;20075;-61
2021/05/15 06:37:49;;;;;;;7.70;5.18;;;13.60;91.00;;;;;;10360537;28;20127;-61
2021/05/15 06:42:51;;;;;;;7.22;5.80;;;18.80;70.20;;;;;;10360522;28;20053;-62
2021/05/15 06:47:56;;;;;;;9.57;4.50;;;19.70;62.40;;;;;;10361440;28;20065;-61
2021/05/15 06:52:58;;;;;;;7.13;3.75;;;24.50;47.00;;;;;;10360549;28;20057;-61
2021/05/15 06:58:04;;;;;;;8.33;5.13;;;26.30;40.70;;;;;;10358569;28;20083;-64
2021/05/15 07:03:06;;;;;;;9.98;4.40;;;27.90;38.30;;;;;;10359407;28;20118;-62
2021/05/15 07:08:07;;;;;;;5.60;3.15;;;26.50;39.90;;;;;;10355337;28;20053;-62
2021/05/15 07:13:09;;;;;;;5.18;2.70;;;25.20;42.40;;;;;;10359329;28;20057;-61
2021/05/15 07:18:11;;;;;;;4.95;4.07;;;28.00;38.20;;;;;;10358046;28;20049;-61
2021/05/15 07:23:12;;;;;;;;;;;30.70;34.40;;;;;;10359672;28;20045;-62
2021/05/15 07:28:14;;;;;;;5.80;3.50;;;32.00;33.30;;;;;;10358120;28;19928;-61
2021/05/15 07:33:15;;;;;;;5.82;3.65;;;32.90;31.50;;;;;;10361574;28;20483;-61
2021/05/15 07:38:16;;;;;;;6.78;3.80;;;32.90;30.10;;;;;;10366763;28;20417;-61
2021/05/15 07:43:23;;;;;;;7.15;3.58;;;31.30;32.30;;;;;;10367584;28;20053;-61
2021/05/15 07:48:29;;;;;;;6.50;3.78;;;30.60;32.40;;;;;;10366782;28;20056;-62
2021/05/15 07:53:30;;;;;;;5.13;3.95;;;30.10;34.10;;;;;;10367784;28;20086;-62
2021/05/15 07:58:33;;;;;;;8.25;4.95;;;32.50;30.30;;;;;;10368281;28;20065;-63
2021/05/15 08:03:34;;;;;;;6.93;3.72;;;33.70;28.40;;;;;;10366873;28;20056;-62
2021/05/15 08:08:36;;;;;;;7.97;3.92;;;32.50;29.30;;;;;;10367352;28;20048;-62
2021/05/15 08:13:38;;;;;;;7.38;4.00;;;34.50;28.60;;;;;;10366447;28;20056;-62
2021/05/15 08:18:39;;;;;;;7.53;4.03;;;34.50;28.80;;;;;;10365717;28;20053;-62
2021/05/15 08:23:41;;;;;;;7.93;4.45;;;31.50;30.40;;;;;;10365004;28;20523;-62
2021/05/15 08:28:48;;;;;;;5.25;4.07;;;29.60;31.50;;;;;;10367392;28;20052;-63
2021/05/15 08:33:49;;;;;;;6.85;5.10;;;28.30;32.10;;;;;;10368280;28;20459;-61
2021/05/15 08:38:53;;;;;;;6.07;4.93;;;26.90;33.30;;;;;;10365980;28;20465;-62
2021/05/15 08:43:56;;;;;;;10.93;5.38;;;26.30;34.00;;;;;;10364523;28;20045;-62
2021/05/15 08:49:02;;;;;;;7.80;5.60;;;25.90;34.10;;;;;;10360437;28;20055;-62
2021/05/15 08:54:04;;;;;;;11.52;7.28;;;25.10;34.90;;;;;;10365934;28;20123;-62
2021/05/15 08:59:06;;;;;;;11.93;8.02;;;24.00;36.60;;;;;;10361682;28;20060;-60
2021/05/15 09:04:07;;;;;;;12.32;8.68;;;23.40;37.90;;;;;;10362297;28;20045;-62
2021/05/15 09:09:09;;;;;;;12.93;9.52;;;23.10;38.30;;;;;;10377378;28;20063;-62
2021/05/15 09:14:16;;;;;;;12.70;9.07;;;22.50;39.30;;;;;;10379275;28;20060;-62
2021/05/15 09:19:21;;;;;;;16.52;10.63;;;21.40;41.10;;;;;;10378782;28;20470;-63
2021/05/15 09:24:30;;;;;;;18.10;10.50;;;20.70;42.50;;;;;;10376336;28;20119;-62
2021/05/15 09:29:41;;;;;;;20.60;11.95;;;19.90;43.90;;;;;;10376219;28;20545;-62
2021/05/15 09:34:46;;;;;;;17.95;10.70;;;19.20;46.10;;;;;;10378405;28;20583;-62
2021/05/15 09:39:48;;;;;;;18.05;11.13;;;19.10;46.60;;;;;;10376943;28;20464;-62
2021/05/15 09:44:50;;;;;;;19.08;10.95;;;18.60;47.30;;;;;;10375853;28;20805;-62
2021/05/15 09:49:53;;;;;;;16.25;10.70;;;18.20;49.20;;;;;;10376730;28;20056;-61
2021/05/15 09:54:54;;;;;;;22.83;12.82;;;18.40;49.50;;;;;;10376386;28;20203;-63
2021/05/15 09:59:56;;;;;;;20.38;13.05;;;19.90;46.90;;;;;;10376741;28;20881;-61
2021/05/15 10:05:09;;;;;;;21.08;13.98;;;21.10;44.80;;;;;;10372050;28;20049;-62
2021/05/15 10:10:11;;;;;;;25.52;14.68;;;22.30;43.40;;;;;;10376262;28;20057;-64
2021/05/15 10:15:14;;;;;;;23.75;15.55;;;23.30;41.50;;;;;;10375952;28;20142;-63
2021/05/15 10:20:15;;;;;;;28.98;17.58;;;23.20;41.90;;;;;;10374801;28;20056;-63
2021/05/15 10:25:17;;;;;;;31.35;18.58;;;22.70;43.10;;;;;;10372919;28;20068;-63
2021/05/15 10:30:21;;;;;;;30.27;18.73;;;22.00;44.10;;;;;;10374259;28;20068;-62
2021/05/15 10:35:33;;;;;;;32.28;20.13;;;22.40;43.20;;;;;;10374945;28;20045;-61
2021/05/15 10:40:46;;;;;;;34.15;19.35;;;21.60;44.70;;;;;;10375319;28;20053;-61
2021/05/15 10:45:48;;;;;;;31.60;18.63;;;21.10;46.00;;;;;;10374195;28;20049;-61
2021/05/15 10:50:52;;;;;;;;;;;20.90;46.20;;;;;;10376337;28;21484;-61
2021/05/15 10:56:03;;;;;;;34.13;16.88;;;20.40;47.20;;;;;;10370079;28;19936;-60
2021/05/15 11:01:09;;;;;;;28.45;16.92;;;19.50;49.10;;;;;;10371983;28;20057;-63
2021/05/15 11:06:16;;;;;;;28.65;17.40;;;18.90;50.90;;;;;;10374552;28;20079;-62
2021/05/15 11:11:17;;;;;;;32.92;16.83;;;18.70;52.10;;;;;;10376628;28;20721;-63
2021/05/15 11:16:31;;;;;;;29.53;16.73;;;19.20;51.60;;;;;;10381478;28;20048;-63
2021/05/15 11:21:35;;;;;;;27.50;15.57;;;20.40;49.70;;;;;;10373452;28;20900;-63
2021/05/15 11:26:48;;;;;;;23.13;14.50;;;21.80;47.00;;;;;;10373521;28;20118;-63
2021/05/15 11:31:50;;;;;;;25.48;14.88;;;23.00;44.60;;;;;;10379272;28;20103;-63
2021/05/15 11:36:51;;;;;;;;;;;23.10;44.20;;;;;;10379796;28;20056;-63
2021/05/15 11:42:06;;;;;;;25.85;14.23;;;22.60;44.80;;;;;;10381249;28;19928;-63
2021/05/15 11:47:10;;;;;;;25.58;14.70;;;22.00;46.20;;;;;;10373052;28;20102;-62
2021/05/15 11:52:11;;;;;;;22.27;13.82;;;21.20;47.90;;;;;;10380846;28;20593;-62
2021/05/15 11:57:13;;;;;;;26.60;15.50;;;20.50;48.80;;;;;;10379477;28;20049;-63
2021/05/15 12:02:15;;;;;;;20.63;14.43;;;20.70;49.00;;;;;;10377315;28;20061;-62
2021/05/15 12:07:17;;;;;;;23.92;15.05;;;20.40;48.70;;;;;;10377621;28;20049;-63
2021/05/15 12:12:18;;;;;;;27.23;17.90;;;19.90;50.50;;;;;;10379828;28;20060;-58
2021/05/15 12:17:21;;;;;;;27.33;18.07;;;19.70;50.90;;;;;;10377764;28;20053;-62
2021/05/15 12:22:26;;;;;;;28.60;17.70;;;19.60;52.40;;;;;;10376419;28;20201;-61
2021/05/15 12:27:31;;;;;;;25.50;17.30;;;19.60;52.90;;;;;;10375517;28;20776;-64
2021/05/15 12:32:35;;;;;;;28.27;18.20;;;19.70;53.00;;;;;;10376756;28;20064;-61
2021/05/15 12:37:38;;;;;;;29.95;18.95;;;20.30;51.80;;;;;;10378577;28;20091;-60
2021/05/15 12:42:40;;;;;;;22.13;15.05;;;20.80;51.40;;;;;;10377934;28;20059;-60
2021/05/15 12:47:43;;;;;;;23.17;13.53;;;21.50;49.80;;;;;;10378638;28;20053;-61
2021/05/15 12:52:44;;;;;;;20.08;10.80;;;21.50;48.80;;;;;;10377141;28;20476;-57
2021/05/15 12:57:54;;;;;;;9.60;5.20;;;21.30;50.70;;;;;;10378828;28;20061;-61
2021/05/15 13:03:00;;;;;;;13.38;6.68;;;20.80;52.70;;;;;;10376875;28;20474;-59
2021/05/15 13:08:07;;;;;;;14.00;7.18;;;19.90;61.10;;;;;;10377855;28;20057;-61
2021/05/15 13:13:08;;;;;;;11.48;5.57;;;19.00;66.40;;;;;;10374416;28;20084;-61
2021/05/15 13:18:18;;;;;;;17.87;7.40;;;18.30;69.80;;;;;;10376476;28;20052;-61
2021/05/15 13:23:20;;;;;;;16.30;7.72;;;17.50;76.60;;;;;;10379698;28;20501;-60
2021/05/15 13:28:21;;;;;;;16.92;9.07;;;16.80;83.10;;;;;;10377469;28;20057;-60
2021/05/15 13:33:24;;;;;;;17.53;8.40;;;16.30;88.40;;;;;;10377505;28;20049;-62
2021/05/15 13:38:25;;;;;;;23.58;11.05;;;16.10;90.30;;;;;;10378061;28;20559;-61
2021/05/15 13:43:26;;;;;;;11.07;6.03;;;16.20;91.30;;;;;;10379592;28;20382;-60
2021/05/15 13:48:32;;;;;;;9.70;6.07;;;16.40;91.10;;;;;;10376605;28;20138;-62
2021/05/15 13:53:34;;;;;;;11.82;5.75;;;16.80;91.00;;;;;;10376917;28;20117;-59
2021/05/15 13:58:36;;;;;;;14.70;7.10;;;17.40;90.50;;;;;;10377304;28;20057;-62
2021/05/15 14:03:39;;;;;;;9.70;5.68;;;18.10;88.60;;;;;;10376500;28;20057;-60
2021/05/15 14:08:40;;;;;;;7.70;5.10;;;18.10;87.40;;;;;;10377930;28;20063;-61
2021/05/15 14:13:41;;;;;;;8.02;5.82;;;18.20;88.90;;;;;;10377884;28;20060;-61
2021/05/15 14:18:44;;;;;;;6.60;4.38;;;18.40;85.70;;;;;;10379228;28;22135;-61
2021/05/15 14:23:45;;;;;;;6.40;4.32;;;18.40;84.00;;;;;;10379161;28;20082;-61
2021/05/15 14:28:46;;;;;;;8.00;3.10;;;18.30;83.60;;;;;;10373811;28;20421;-61
2021/05/15 14:33:48;;;;;;;2.45;2.20;;;18.10;82.70;;;;;;10378189;28;20059;-63
2021/05/15 14:38:50;;;;;;;2.53;1.45;;;17.50;81.90;;;;;;10377133;28;20061;-61
2021/05/15 14:43:51;;;;;;;3.47;2.17;;;16.70;81.60;;;;;;10379855;28;20053;-61
2021/05/15 14:48:53;;;;;;;2.88;2.55;;;15.90;84.10;;;;;;10382509;28;20554;-61
2021/05/15 14:53:55;;;;;;;9.82;3.55;;;15.20;88.70;;;;;;10384401;28;20118;-61
2021/05/15 14:58:56;;;;;;;7.65;4.38;;;14.60;91.90;;;;;;10381908;28;20231;-62
2021/05/15 15:03:59;;;;;;;8.90;4.45;;;14.10;94.10;;;;;;10385614;28;20060;-62
2021/05/15 15:09:04;;;;;;;8.67;5.63;;;13.90;95.20;;;;;;10386078;28;21459;-63
2021/05/15 15:14:05;;;;;;;11.70;7.30;;;13.60;96.30;;;;;;10383703;28;20083;-62
2021/05/15 15:19:07;;;;;;;12.38;7.18;;;13.70;96.80;;;;;;10383230;28;21282;-63
2021/05/15 15:24:09;;;;;;;10.30;5.00;;;13.90;96.90;;;;;;10383330;28;20068;-62
2021/05/15 15:29:10;;;;;;;3.38;3.03;;;14.00;97.30;;;;;;10383785;28;20799;-63
2021/05/15 15:34:13;;;;;;;7.18;4.50;;;14.20;97.90;;;;;;10383613;28;20059;-62
2021/05/15 15:39:14;;;;;;;10.57;4.65;;;14.70;98.20;;;;;;10382594;28;20053;-62
2021/05/15 15:44:16;;;;;;;7.10;4.88;;;15.20;97.70;;;;;;10383762;28;20802;-62
2021/05/15 15:49:18;;;;;;;5.70;5.00;;;15.80;97.70;;;;;;10385550;28;20262;-65
2021/05/15 15:54:20;;;;;;;7.88;4.70;;;16.30;97.40;;;;;;10384921;28;20072;-61
2021/05/15 15:59:22;;;;;;;5.50;3.35;;;16.30;96.90;;;;;;10381275;28;20053;-63
2021/05/15 16:04:24;;;;;;;5.43;3.67;;;15.80;96.10;;;;;;10383556;28;20059;-63
2021/05/15 16:09:26;;;;;;;4.22;3.08;;;15.20;96.70;;;;;;10381149;28;20092;-61
2021/05/15 16:14:28;;;;;;;4.38;3.30;;;14.70;97.40;;;;;;10384016;28;20048;-60
2021/05/15 16:19:30;;;;;;;7.30;3.73;;;14.60;98.00;;;;;;10382330;28;20048;-61
2021/05/15 16:24:31;;;;;;;6.97;4.47;;;14.80;98.50;;;;;;10380530;28;20083;-62
2021/05/15 16:29:34;;;;;;;8.38;5.82;;;15.10;98.20;;;;;;10382213;28;20146;-62
2021/05/15 16:34:38;;;;;;;7.57;6.47;;;15.40;97.40;;;;;;10381535;28;20709;-61
2021/05/15 16:39:39;;;;;;;10.98;8.25;;;15.30;96.60;;;;;;10380015;28;20140;-62
2021/05/15 16:44:40;;;;;;;10.38;8.50;;;15.20;97.10;;;;;;10380741;28;20717;-61
2021/05/15 16:49:44;;;;;;;10.68;9.38;;;15.20;97.20;;;;;;10381629;28;20055;-61
2021/05/15 16:54:48;;;;;;;8.85;7.82;;;15.20;97.80;;;;;;10379006;28;20206;-63
2021/05/15 16:59:50;;;;;;;7.78;6.97;;;15.20;97.80;;;;;;10378606;28;20064;-62
2021/05/15 17:04:52;;;;;;;9.82;7.75;;;15.10;97.70;;;;;;10379397;28;20607;-61
2021/05/15 17:09:53;;;;;;;9.55;7.40;;;15.10;97.80;;;;;;10378971;28;20935;-61
2021/05/15 17:14:55;;;;;;;8.70;7.00;;;15.10;97.60;;;;;;10379506;28;20618;-62
2021/05/15 17:19:57;;;;;;;11.20;8.05;;;15.00;97.40;;;;;;10380775;28;20048;-61
2021/05/15 17:24:58;;;;;;;9.57;6.90;;;14.90;97.70;;;;;;10377438;28;21276;-61
2021/05/15 17:29:59;;;;;;;7.22;6.00;;;15.00;97.60;;;;;;10380480;28;20479;-61
2021/05/15 17:35:01;;;;;;;8.82;6.00;;;15.00;97.50;;;;;;10376799;28;20095;-61
2021/05/15 17:40:05;;;;;;;6.95;5.25;;;15.00;97.10;;;;;;10374484;28;20074;-61
2021/05/15 17:45:07;;;;;;;16.23;5.00;;;14.90;97.10;;;;;;10378888;28;20717;-61
2021/05/15 17:50:12;;;;;;;4.43;3.97;;;14.80;96.90;;;;;;10375313;28;20060;-61
2021/05/15 17:55:13;;;;;;;9.05;5.00;;;14.80;96.90;;;;;;10380343;28;20110;-62
2021/05/15 18:00:15;;;;;;;9.38;5.00;;;14.80;96.90;;;;;;10378596;28;20060;-61
2021/05/15 18:05:18;;;;;;;6.45;5.53;;;14.80;97.10;;;;;;10379950;28;20064;-62
2021/05/15 18:10:20;;;;;;;7.13;3.97;;;14.90;96.70;;;;;;10377749;28;20053;-60
2021/05/15 18:15:22;;;;;;;4.57;3.85;;;14.80;96.00;;;;;;10379585;28;20151;-60
2021/05/15 18:20:24;;;;;;;5.10;4.60;;;14.40;96.30;;;;;;10377479;28;21691;-61
2021/05/15 18:25:25;;;;;;;7.15;4.85;;;14.20;96.60;;;;;;10379530;28;20063;-61
2021/05/15 18:30:27;;;;;;;5.90;4.25;;;13.80;97.20;;;;;;10377487;28;20056;-61
2021/05/15 18:35:29;;;;;;;5.20;4.05;;;13.90;97.60;;;;;;10379026;28;20053;-61
2021/05/15 18:40:31;;;;;;;4.77;4.27;;;14.10;97.40;;;;;;10378409;28;20052;-61
2021/05/15 18:45:33;;;;;;;5.35;4.60;;;14.20;97.00;;;;;;10377081;28;20725;-60
2021/05/15 18:50:35;;;;;;;5.00;4.13;;;14.30;97.10;;;;;;10379121;28;20148;-61
2021/05/15 18:55:36;;;;;;;7.40;4.55;;;14.30;97.20;;;;;;10377860;28;20072;-62
2021/05/15 19:00:38;;;;;;;9.82;5.65;;;14.20;97.30;;;;;;10375584;28;20518;-62
2021/05/15 19:05:40;;;;;;;13.13;6.70;;;14.00;97.80;;;;;;10361644;28;20048;-63
2021/05/15 19:10:41;;;;;;;9.47;5.70;;;13.60;98.50;;;;;;10361624;28;20045;-60
2021/05/15 19:15:43;;;;;;;10.93;6.00;;;13.40;99.60;;;;;;10357740;28;20537;-61
2021/05/15 19:20:45;;;;;;;15.38;6.90;;;13.10;99.90;;;;;;10359541;28;20049;-62
2021/05/15 19:25:47;;;;;;;11.00;6.75;;;12.80;99.90;;;;;;10361497;28;20505;-61
2021/05/15 19:30:49;;;;;;;14.85;8.20;;;12.50;99.90;;;;;;10367856;28;20057;-62
2021/05/15 19:35:54;;;;;;;13.07;7.67;;;12.50;99.90;;;;;;10373566;28;20053;-61
2021/05/15 19:40:55;;;;;;;13.48;8.02;;;12.40;99.90;;;;;;10365455;28;20494;-59
2021/05/15 19:45:57;;;;;;;13.15;9.57;;;12.40;99.90;;;;;;10366891;28;20057;-61
2021/05/15 19:51:01;;;;;;;17.10;9.32;;;12.40;99.90;;;;;;10366842;28;20091;-60
2021/05/15 19:56:02;;;;;;;15.50;10.35;;;12.40;99.90;;;;;;10367254;28;20064;-61
2021/05/15 20:01:04;;;;;;;14.85;10.60;;;12.40;99.90;;;;;;10367406;28;20610;-62
2021/05/15 20:06:06;;;;;;;17.63;11.75;;;12.20;99.90;;;;;;10367038;28;20060;-62
2021/05/15 20:11:07;;;;;;;20.73;11.23;;;12.10;99.90;;;;;;10365807;28;20087;-62
2021/05/15 20:16:09;;;;;;;22.08;12.32;;;12.00;99.90;;;;;;10367210;28;20076;-62
2021/05/15 20:21:12;;;;;;;251.23;21.93;;;12.10;99.90;;;;;;10370175;28;20094;-62
2021/05/15 20:26:13;;;;;;;35.47;13.70;;;12.10;99.90;;;;;;10368891;28;22050;-62
2021/05/15 20:31:15;;;;;;;20.40;7.70;;;12.10;99.90;;;;;;10368960;28;20057;-62
2021/05/15 20:36:17;;;;;;;29.75;7.18;;;12.00;99.90;;;;;;10367459;28;20111;-62
2021/05/15 20:41:18;;;;;;;21.13;7.03;;;11.80;99.90;;;;;;10366585;28;20102;-63
2021/05/15 20:46:20;;;;;;;16.38;6.03;;;11.70;99.90;;;;;;10369121;28;20060;-63
2021/05/15 20:51:23;;;;;;;22.67;6.25;;;11.60;99.90;;;;;;10369338;28;20045;-62
2021/05/15 20:56:24;;;;;;;11.55;5.32;;;11.60;99.90;;;;;;10367406;28;20053;-63
2021/05/15 21:01:25;;;;;;;11.30;4.80;;;11.50;99.90;;;;;;10366942;28;20052;-62
2021/05/15 21:06:28;;;;;;;10.95;4.63;;;11.40;99.90;;;;;;10366633;28;20154;-62
2021/05/15 21:11:29;;;;;;;17.45;5.72;;;11.40;99.90;;;;;;10365593;28;20640;-63
2021/05/15 21:16:30;;;;;;;28.15;5.78;;;11.40;99.90;;;;;;10365556;28;20126;-63
2021/05/15 21:21:33;;;;;;;26.00;5.57;;;11.40;99.90;;;;;;10364622;28;20048;-63
2021/05/15 21:26:34;;;;;;;25.92;7.05;;;11.40;99.90;;;;;;10359098;28;20424;-62
2021/05/15 21:31:36;;;;;;;31.75;6.85;;;11.40;99.90;;;;;;10363278;28;20053;-61
2021/05/15 21:36:38;;;;;;;27.83;8.18;;;11.40;99.90;;;;;;10362547;28;20505;-61
2021/05/15 21:41:39;;;;;;;31.47;9.03;;;11.40;99.90;;;;;;10363233;28;21549;-62
2021/05/15 21:46:40;;;;;;;22.20;8.88;;;11.30;99.90;;;;;;10348823;28;20095;-62
2021/05/15 21:51:43;;;;;;;29.20;8.45;;;11.30;99.90;;;;;;10364732;28;20103;-61
2021/05/15 21:56:44;;;;;;;26.63;9.30;;;11.40;99.90;;;;;;10365574;28;20072;-61
2021/05/15 22:01:45;;;;;;;23.90;8.73;;;11.30;99.90;;;;;;10367282;28;20488;-61
2021/05/15 22:06:48;;;;;;;30.73;9.20;;;11.30;99.90;;;;;;10367118;28;20528;-62
2021/05/15 22:11:49;;;;;;;26.87;9.10;;;11.40;99.90;;;;;;10365928;28;20052;-59
2021/05/15 22:16:50;;;;;;;34.13;9.52;;;11.40;99.90;;;;;;10366235;28;20056;-61
2021/05/15 22:21:54;;;;;;;30.45;9.02;;;11.30;99.90;;;;;;10367850;28;20057;-61
2021/05/15 22:26:55;;;;;;;39.13;10.43;;;11.30;99.90;;;;;;10366365;28;20118;-62
2021/05/15 22:31:56;;;;;;;39.38;11.27;;;11.30;99.90;;;;;;10366044;28;20064;-62
2021/05/15 22:36:58;;;;;;;47.17;11.98;;;11.30;99.90;;;;;;10368926;28;20119;-62
2021/05/15 22:42:00;;;;;;;41.73;11.37;;;11.10;99.90;;;;;;10366948;28;20041;-62
2021/05/15 22:47:01;;;;;;;40.53;13.05;;;11.00;99.90;;;;;;10365637;28;20053;-63
2021/05/15 22:52:04;;;;;;;26.35;10.05;;;11.00;99.90;;;;;;10365572;28;20049;-62
2021/05/15 22:57:08;;;;;;;40.08;12.45;;;10.90;99.90;;;;;;10366646;28;20102;-63
2021/05/15 23:02:10;;;;;;;47.00;10.20;;;10.90;99.90;;;;;;10365205;28;20068;-63
2021/05/15 23:07:17;;;;;;;45.90;11.17;;;10.90;99.90;;;;;;10368257;28;20045;-63
2021/05/15 23:12:20;;;;;;;34.95;8.45;;;10.70;99.90;;;;;;10367819;28;20067;-63
2021/05/15 23:17:22;;;;;;;31.75;6.65;;;10.70;99.90;;;;;;10370179;28;20061;-63
2021/05/15 23:22:24;;;;;;;43.92;9.45;;;10.60;99.90;;;;;;10372503;28;20049;-62
2021/05/15 23:27:25;;;;;;;25.27;7.73;;;10.50;99.90;;;;;;10373443;28;20103;-62
2021/05/15 23:32:26;;;;;;;23.40;6.70;;;10.40;99.90;;;;;;10373364;28;20554;-61
2021/05/15 23:37:29;;;;;;;23.95;7.28;;;11.30;99.90;;;;;;10373891;28;20443;-62
2021/05/15 23:42:30;;;;;;;28.53;8.73;;;10.20;99.90;;;;;;10366337;28;20559;-62
2021/05/15 23:47:32;;;;;;;48.97;9.90;;;10.20;99.90;;;;;;10365759;28;20481;-61
2021/05/15 23:52:34;;;;;;;23.73;7.57;;;10.30;99.90;;;;;;10365186;28;20111;-62
2021/05/15 23:57:35;;;;;;;39.97;11.70;;;10.40;99.90;;;;;;10363976;28;20044;-61
